sensor_id;sensor_type;location;lat;lon;timestamp;P1;durP1;ratioP1;P2;durP2;ratioP2
3052;SDS011;1536;51.098;6.414;2023-12-20T00:01:00;10.57;;;8.50;;
3052;SDS011;1536;51.098;6.414;2023-12-20T00:03:27;11.57;;;9.18;;
3052;SDS011;1536;51.098;6.414;2023-12-20T00:05:54;10.63;;;8.52;;
3052;SDS011;1536;51.098;6.414;2023-12-20T00:08:21;13.63;;;9.20;;
3052;SDS011;1536;51.098;6.414;2023-12-20T00:10:48;12.70;;;8.85;;
3052;SDS011;1536;51.098;6.414;2023-12-20T00:13:15;12.95;;;9.20;;
3052;SDS011;1536;51.098;6.414;2023-12-20T00:15:42;11.02;;;8.70;;
3052;SDS011;1536;51.098;6.414;2023-12-20T00:18:10;14.95;;;9.45;;
3052;SDS011;1536;51.098;6.414;2023-12-20T00:20:37;12.15;;;8.77;;
3052;SDS011;1536;51.098;6.414;2023-12-20T00:23:04;11.50;;;8.77;;
3052;SDS011;1536;51.098;6.414;2023-12-20T00:25:32;17.17;;;8.05;;
3052;SDS011;1536;51.098;6.414;2023-12-20T00:27:59;11.27;;;8.70;;
3052;SDS011;1536;51.098;6.414;2023-12-20T00:30:27;13.13;;;9.13;;
3052;SDS011;1536;51.098;6.414;2023-12-20T00:32:54;13.25;;;9.38;;
3052;SDS011;1536;51.098;6.414;2023-12-20T00:35:23;13.10;;;10.32;;
3052;SDS011;1536;51.098;6.414;2023-12-20T00:37:49;13.60;;;11.07;;
3052;SDS011;1536;51.098;6.414;2023-12-20T00:40:16;18.67;;;11.50;;
3052;SDS011;1536;51.098;6.414;2023-12-20T00:42:43;14.82;;;11.82;;
3052;SDS011;1536;51.098;6.414;2023-12-20T00:45:11;14.95;;;11.85;;
3052;SDS011;1536;51.098;6.414;2023-12-20T00:47:39;15.23;;;10.90;;
3052;SDS011;1536;51.098;6.414;2023-12-20T00:50:06;18.40;;;11.73;;
3052;SDS011;1536;51.098;6.414;2023-12-20T00:52:35;20.83;;;12.65;;
3052;SDS011;1536;51.098;6.414;2023-12-20T00:55:02;17.75;;;12.10;;
3052;SDS011;1536;51.098;6.414;2023-12-20T00:57:30;25.58;;;13.70;;
3052;SDS011;1536;51.098;6.414;2023-12-20T00:59:56;24.10;;;13.50;;
3052;SDS011;1536;51.098;6.414;2023-12-20T01:02:23;22.13;;;13.30;;
3052;SDS011;1536;51.098;6.414;2023-12-20T01:04:50;18.98;;;13.40;;
3052;SDS011;1536;51.098;6.414;2023-12-20T01:07:17;20.38;;;14.48;;
3052;SDS011;1536;51.098;6.414;2023-12-20T01:09:45;19.77;;;14.05;;
3052;SDS011;1536;51.098;6.414;2023-12-20T01:14:53;21.33;;;13.25;;
3052;SDS011;1536;51.098;6.414;2023-12-20T01:17:20;18.65;;;11.00;;
3052;SDS011;1536;51.098;6.414;2023-12-20T01:19:47;15.95;;;11.05;;
3052;SDS011;1536;51.098;6.414;2023-12-20T01:22:13;15.48;;;9.20;;
3052;SDS011;1536;51.098;6.414;2023-12-20T01:24:40;10.88;;;6.65;;
3052;SDS011;1536;51.098;6.414;2023-12-20T01:27:08;16.05;;;7.95;;
3052;SDS011;1536;51.098;6.414;2023-12-20T01:29:35;17.75;;;8.30;;
3052;SDS011;1536;51.098;6.414;2023-12-20T01:32:02;10.50;;;6.72;;
3052;SDS011;1536;51.098;6.414;2023-12-20T01:34:29;9.70;;;6.45;;
3052;SDS011;1536;51.098;6.414;2023-12-20T01:36:56;22.05;;;6.05;;
3052;SDS011;1536;51.098;6.414;2023-12-20T01:39:22;15.20;;;4.80;;
3052;SDS011;1536;51.098;6.414;2023-12-20T01:41:49;7.70;;;5.05;;
3052;SDS011;1536;51.098;6.414;2023-12-20T01:44:17;9.68;;;3.60;;
3052;SDS011;1536;51.098;6.414;2023-12-20T01:46:44;5.25;;;2.85;;
3052;SDS011;1536;51.098;6.414;2023-12-20T01:49:12;7.35;;;4.10;;
3052;SDS011;1536;51.098;6.414;2023-12-20T01:51:39;8.95;;;3.90;;
3052;SDS011;1536;51.098;6.414;2023-12-20T01:54:06;9.95;;;4.30;;
3052;SDS011;1536;51.098;6.414;2023-12-20T01:56:33;11.05;;;4.47;;
3052;SDS011;1536;51.098;6.414;2023-12-20T01:59:00;6.55;;;3.72;;
3052;SDS011;1536;51.098;6.414;2023-12-20T02:01:30;12.70;;;3.60;;
3052;SDS011;1536;51.098;6.414;2023-12-20T02:03:57;10.65;;;3.15;;
3052;SDS011;1536;51.098;6.414;2023-12-20T02:06:25;8.65;;;3.55;;
3052;SDS011;1536;51.098;6.414;2023-12-20T02:08:55;22.55;;;5.38;;
3052;SDS011;1536;51.098;6.414;2023-12-20T02:11:23;7.03;;;3.30;;
3052;SDS011;1536;51.098;6.414;2023-12-20T02:13:50;5.15;;;3.67;;
3052;SDS011;1536;51.098;6.414;2023-12-20T02:16:17;17.52;;;3.30;;
3052;SDS011;1536;51.098;6.414;2023-12-20T02:18:47;10.02;;;4.50;;
3052;SDS011;1536;51.098;6.414;2023-12-20T02:21:14;10.82;;;3.90;;
3052;SDS011;1536;51.098;6.414;2023-12-20T02:23:42;8.88;;;3.15;;
3052;SDS011;1536;51.098;6.414;2023-12-20T02:26:09;6.47;;;3.15;;
3052;SDS011;1536;51.098;6.414;2023-12-20T02:28:38;10.23;;;3.10;;
3052;SDS011;1536;51.098;6.414;2023-12-20T02:31:05;8.65;;;2.92;;
3052;SDS011;1536;51.098;6.414;2023-12-20T02:33:31;9.57;;;3.00;;
3052;SDS011;1536;51.098;6.414;2023-12-20T02:35:58;6.28;;;2.70;;
3052;SDS011;1536;51.098;6.414;2023-12-20T02:38:25;12.60;;;3.97;;
3052;SDS011;1536;51.098;6.414;2023-12-20T02:40:53;4.47;;;2.70;;
3052;SDS011;1536;51.098;6.414;2023-12-20T02:43:20;13.40;;;2.75;;
3052;SDS011;1536;51.098;6.414;2023-12-20T02:45:47;7.75;;;2.75;;
3052;SDS011;1536;51.098;6.414;2023-12-20T02:48:14;7.18;;;2.53;;
3052;SDS011;1536;51.098;6.414;2023-12-20T02:50:40;12.98;;;2.95;;
3052;SDS011;1536;51.098;6.414;2023-12-20T02:53:07;16.17;;;3.45;;
3052;SDS011;1536;51.098;6.414;2023-12-20T02:55:34;9.32;;;2.63;;
3052;SDS011;1536;51.098;6.414;2023-12-20T02:58:02;6.45;;;2.38;;
3052;SDS011;1536;51.098;6.414;2023-12-20T03:00:29;7.85;;;3.08;;
3052;SDS011;1536;51.098;6.414;2023-12-20T03:02:56;16.63;;;4.57;;
3052;SDS011;1536;51.098;6.414;2023-12-20T03:05:24;11.50;;;3.53;;
3052;SDS011;1536;51.098;6.414;2023-12-20T03:07:51;10.98;;;3.15;;
3052;SDS011;1536;51.098;6.414;2023-12-20T03:10:18;9.77;;;2.22;;
3052;SDS011;1536;51.098;6.414;2023-12-20T03:12:45;11.55;;;3.05;;
3052;SDS011;1536;51.098;6.414;2023-12-20T03:15:13;13.07;;;3.60;;
3052;SDS011;1536;51.098;6.414;2023-12-20T03:17:41;13.25;;;3.20;;
3052;SDS011;1536;51.098;6.414;2023-12-20T03:20:08;14.85;;;3.60;;
3052;SDS011;1536;51.098;6.414;2023-12-20T03:22:35;13.90;;;4.10;;
3052;SDS011;1536;51.098;6.414;2023-12-20T03:25:02;12.45;;;3.72;;
3052;SDS011;1536;51.098;6.414;2023-12-20T03:27:29;13.73;;;3.83;;
3052;SDS011;1536;51.098;6.414;2023-12-20T03:29:55;12.95;;;3.95;;
3052;SDS011;1536;51.098;6.414;2023-12-20T03:32:24;10.55;;;3.35;;
3052;SDS011;1536;51.098;6.414;2023-12-20T03:34:50;19.15;;;3.60;;
3052;SDS011;1536;51.098;6.414;2023-12-20T03:37:17;9.23;;;3.67;;
3052;SDS011;1536;51.098;6.414;2023-12-20T03:39:44;7.47;;;3.13;;
3052;SDS011;1536;51.098;6.414;2023-12-20T03:42:10;8.02;;;3.78;;
3052;SDS011;1536;51.098;6.414;2023-12-20T03:44:38;13.40;;;4.15;;
3052;SDS011;1536;51.098;6.414;2023-12-20T03:47:05;9.13;;;3.65;;
3052;SDS011;1536;51.098;6.414;2023-12-20T03:49:33;10.18;;;3.10;;
3052;SDS011;1536;51.098;6.414;2023-12-20T03:52:02;9.63;;;3.58;;
3052;SDS011;1536;51.098;6.414;2023-12-20T03:54:29;13.27;;;4.00;;
3052;SDS011;1536;51.098;6.414;2023-12-20T03:56:56;13.35;;;4.00;;
3052;SDS011;1536;51.098;6.414;2023-12-20T03:59:22;13.07;;;4.15;;
3052;SDS011;1536;51.098;6.414;2023-12-20T04:01:49;19.15;;;3.92;;
3052;SDS011;1536;51.098;6.414;2023-12-20T04:04:16;12.73;;;5.00;;
3052;SDS011;1536;51.098;6.414;2023-12-20T04:06:44;19.23;;;5.43;;
3052;SDS011;1536;51.098;6.414;2023-12-20T04:09:11;9.85;;;4.50;;
3052;SDS011;1536;51.098;6.414;2023-12-20T04:11:38;17.38;;;5.05;;
3052;SDS011;1536;51.098;6.414;2023-12-20T04:14:04;11.38;;;5.68;;
3052;SDS011;1536;51.098;6.414;2023-12-20T04:16:32;10.88;;;5.07;;
3052;SDS011;1536;51.098;6.414;2023-12-20T04:18:59;16.23;;;4.97;;
3052;SDS011;1536;51.098;6.414;2023-12-20T04:21:26;9.18;;;4.90;;
3052;SDS011;1536;51.098;6.414;2023-12-20T04:23:54;6.82;;;5.07;;
3052;SDS011;1536;51.098;6.414;2023-12-20T04:26:20;10.45;;;5.00;;
3052;SDS011;1536;51.098;6.414;2023-12-20T04:28:47;12.52;;;4.50;;
3052;SDS011;1536;51.098;6.414;2023-12-20T04:31:14;9.07;;;4.45;;
3052;SDS011;1536;51.098;6.414;2023-12-20T04:33:40;8.90;;;4.22;;
3052;SDS011;1536;51.098;6.414;2023-12-20T04:36:07;7.45;;;4.03;;
3052;SDS011;1536;51.098;6.414;2023-12-20T04:38:35;13.18;;;4.32;;
3052;SDS011;1536;51.098;6.414;2023-12-20T04:41:03;16.23;;;4.30;;
3052;SDS011;1536;51.098;6.414;2023-12-20T04:43:30;14.40;;;5.10;;
3052;SDS011;1536;51.098;6.414;2023-12-20T04:45:57;12.52;;;4.25;;
3052;SDS011;1536;51.098;6.414;2023-12-20T04:48:24;18.17;;;4.93;;
3052;SDS011;1536;51.098;6.414;2023-12-20T04:50:50;10.60;;;4.65;;
3052;SDS011;1536;51.098;6.414;2023-12-20T04:53:17;12.43;;;5.18;;
3052;SDS011;1536;51.098;6.414;2023-12-20T04:55:44;21.92;;;5.30;;
3052;SDS011;1536;51.098;6.414;2023-12-20T04:58:12;17.08;;;5.60;;
3052;SDS011;1536;51.098;6.414;2023-12-20T05:00:39;17.88;;;4.72;;
3052;SDS011;1536;51.098;6.414;2023-12-20T05:03:06;11.30;;;4.50;;
3052;SDS011;1536;51.098;6.414;2023-12-20T05:05:33;17.30;;;5.03;;
3052;SDS011;1536;51.098;6.414;2023-12-20T05:08:00;11.85;;;4.60;;
3052;SDS011;1536;51.098;6.414;2023-12-20T05:10:26;12.90;;;5.18;;
3052;SDS011;1536;51.098;6.414;2023-12-20T05:12:53;23.48;;;4.82;;
3052;SDS011;1536;51.098;6.414;2023-12-20T05:15:22;12.00;;;4.70;;
3052;SDS011;1536;51.098;6.414;2023-12-20T05:17:49;27.15;;;5.72;;
3052;SDS011;1536;51.098;6.414;2023-12-20T05:20:16;13.30;;;4.90;;
3052;SDS011;1536;51.098;6.414;2023-12-20T05:22:43;14.38;;;4.88;;
3052;SDS011;1536;51.098;6.414;2023-12-20T05:25:10;17.40;;;4.45;;
3052;SDS011;1536;51.098;6.414;2023-12-20T05:27:37;11.45;;;4.28;;
3052;SDS011;1536;51.098;6.414;2023-12-20T05:30:05;21.48;;;5.50;;
3052;SDS011;1536;51.098;6.414;2023-12-20T05:32:34;23.67;;;7.32;;
3052;SDS011;1536;51.098;6.414;2023-12-20T05:35:01;6.93;;;4.80;;
3052;SDS011;1536;51.098;6.414;2023-12-20T05:37:28;21.73;;;6.30;;
3052;SDS011;1536;51.098;6.414;2023-12-20T05:39:55;13.45;;;4.80;;
3052;SDS011;1536;51.098;6.414;2023-12-20T05:42:22;14.90;;;5.25;;
3052;SDS011;1536;51.098;6.414;2023-12-20T05:44:48;14.30;;;5.47;;
3052;SDS011;1536;51.098;6.414;2023-12-20T05:47:15;10.00;;;4.18;;
3052;SDS011;1536;51.098;6.414;2023-12-20T05:49:44;19.27;;;5.60;;
3052;SDS011;1536;51.098;6.414;2023-12-20T05:52:11;20.38;;;6.65;;
3052;SDS011;1536;51.098;6.414;2023-12-20T05:54:38;16.58;;;5.53;;
3052;SDS011;1536;51.098;6.414;2023-12-20T05:57:04;11.18;;;4.75;;
3052;SDS011;1536;51.098;6.414;2023-12-20T05:59:32;16.13;;;5.90;;
3052;SDS011;1536;51.098;6.414;2023-12-20T06:01:59;27.75;;;5.68;;
3052;SDS011;1536;51.098;6.414;2023-12-20T06:04:26;11.70;;;5.88;;
3052;SDS011;1536;51.098;6.414;2023-12-20T06:06:54;15.55;;;4.95;;
3052;SDS011;1536;51.098;6.414;2023-12-20T06:09:20;12.63;;;5.18;;
3052;SDS011;1536;51.098;6.414;2023-12-20T06:11:48;10.75;;;4.47;;
3052;SDS011;1536;51.098;6.414;2023-12-20T06:14:16;11.75;;;4.30;;
3052;SDS011;1536;51.098;6.414;2023-12-20T06:16:42;15.73;;;4.53;;
3052;SDS011;1536;51.098;6.414;2023-12-20T06:19:10;12.20;;;5.05;;
3052;SDS011;1536;51.098;6.414;2023-12-20T06:21:37;14.88;;;5.13;;
3052;SDS011;1536;51.098;6.414;2023-12-20T06:24:05;15.00;;;5.25;;
3052;SDS011;1536;51.098;6.414;2023-12-20T06:26:32;21.48;;;5.35;;
3052;SDS011;1536;51.098;6.414;2023-12-20T06:28:59;15.93;;;5.75;;
3052;SDS011;1536;51.098;6.414;2023-12-20T06:31:26;12.27;;;4.70;;
3052;SDS011;1536;51.098;6.414;2023-12-20T06:33:53;10.10;;;4.47;;
3052;SDS011;1536;51.098;6.414;2023-12-20T06:36:22;17.45;;;4.53;;
3052;SDS011;1536;51.098;6.414;2023-12-20T06:38:49;18.33;;;5.45;;
3052;SDS011;1536;51.098;6.414;2023-12-20T06:41:18;8.90;;;4.60;;
3052;SDS011;1536;51.098;6.414;2023-12-20T06:43:45;14.60;;;5.65;;
3052;SDS011;1536;51.098;6.414;2023-12-20T06:46:12;11.20;;;4.90;;
3052;SDS011;1536;51.098;6.414;2023-12-20T06:48:39;20.65;;;5.70;;
3052;SDS011;1536;51.098;6.414;2023-12-20T06:51:06;17.73;;;5.50;;
3052;SDS011;1536;51.098;6.414;2023-12-20T06:53:35;13.05;;;6.13;;
3052;SDS011;1536;51.098;6.414;2023-12-20T06:56:02;12.93;;;5.15;;
3052;SDS011;1536;51.098;6.414;2023-12-20T06:58:30;10.27;;;5.15;;
3052;SDS011;1536;51.098;6.414;2023-12-20T07:00:57;11.50;;;5.22;;
3052;SDS011;1536;51.098;6.414;2023-12-20T07:03:24;12.73;;;5.50;;
3052;SDS011;1536;51.098;6.414;2023-12-20T07:05:51;21.17;;;5.85;;
3052;SDS011;1536;51.098;6.414;2023-12-20T07:08:18;14.65;;;5.63;;
3052;SDS011;1536;51.098;6.414;2023-12-20T07:10:45;18.90;;;6.47;;
3052;SDS011;1536;51.098;6.414;2023-12-20T07:13:11;12.98;;;5.50;;
3052;SDS011;1536;51.098;6.414;2023-12-20T07:15:40;18.83;;;6.25;;
3052;SDS011;1536;51.098;6.414;2023-12-20T07:18:07;14.98;;;5.60;;
3052;SDS011;1536;51.098;6.414;2023-12-20T07:20:34;14.15;;;5.45;;
3052;SDS011;1536;51.098;6.414;2023-12-20T07:23:01;10.82;;;5.95;;
3052;SDS011;1536;51.098;6.414;2023-12-20T07:25:28;18.90;;;6.70;;
3052;SDS011;1536;51.098;6.414;2023-12-20T07:27:57;17.48;;;5.70;;
3052;SDS011;1536;51.098;6.414;2023-12-20T07:30:24;12.07;;;5.47;;
3052;SDS011;1536;51.098;6.414;2023-12-20T07:32:52;17.02;;;5.82;;
3052;SDS011;1536;51.098;6.414;2023-12-20T07:35:20;11.65;;;6.15;;
3052;SDS011;1536;51.098;6.414;2023-12-20T07:37:47;26.95;;;6.78;;
3052;SDS011;1536;51.098;6.414;2023-12-20T07:40:13;12.05;;;6.50;;
3052;SDS011;1536;51.098;6.414;2023-12-20T07:42:42;15.82;;;5.80;;
3052;SDS011;1536;51.098;6.414;2023-12-20T07:45:09;8.07;;;5.03;;
3052;SDS011;1536;51.098;6.414;2023-12-20T07:47:36;20.50;;;6.00;;
3052;SDS011;1536;51.098;6.414;2023-12-20T07:50:05;12.80;;;5.15;;
3052;SDS011;1536;51.098;6.414;2023-12-20T07:52:32;11.30;;;5.25;;
3052;SDS011;1536;51.098;6.414;2023-12-20T07:54:59;12.95;;;6.55;;
3052;SDS011;1536;51.098;6.414;2023-12-20T07:57:30;9.27;;;5.32;;
3052;SDS011;1536;51.098;6.414;2023-12-20T07:59:56;17.00;;;5.88;;
3052;SDS011;1536;51.098;6.414;2023-12-20T08:02:23;15.85;;;5.95;;
3052;SDS011;1536;51.098;6.414;2023-12-20T08:04:50;19.08;;;5.28;;
3052;SDS011;1536;51.098;6.414;2023-12-20T08:07:19;15.70;;;6.18;;
3052;SDS011;1536;51.098;6.414;2023-12-20T08:09:46;10.88;;;4.65;;
3052;SDS011;1536;51.098;6.414;2023-12-20T08:12:13;14.10;;;6.13;;
3052;SDS011;1536;51.098;6.414;2023-12-20T08:14:42;12.50;;;5.07;;
3052;SDS011;1536;51.098;6.414;2023-12-20T08:17:08;16.80;;;5.43;;
3052;SDS011;1536;51.098;6.414;2023-12-20T08:19:35;16.15;;;4.93;;
3052;SDS011;1536;51.098;6.414;2023-12-20T08:22:02;12.57;;;5.03;;
3052;SDS011;1536;51.098;6.414;2023-12-20T08:24:30;9.93;;;5.22;;
3052;SDS011;1536;51.098;6.414;2023-12-20T08:26:57;24.45;;;5.90;;
3052;SDS011;1536;51.098;6.414;2023-12-20T08:29:25;12.48;;;5.80;;
3052;SDS011;1536;51.098;6.414;2023-12-20T08:31:52;13.52;;;6.65;;
3052;SDS011;1536;51.098;6.414;2023-12-20T08:34:22;12.13;;;5.35;;
3052;SDS011;1536;51.098;6.414;2023-12-20T08:36:50;17.48;;;4.72;;
3052;SDS011;1536;51.098;6.414;2023-12-20T08:39:17;25.45;;;5.43;;
3052;SDS011;1536;51.098;6.414;2023-12-20T08:41:45;7.90;;;4.38;;
3052;SDS011;1536;51.098;6.414;2023-12-20T08:44:11;17.67;;;4.93;;
3052;SDS011;1536;51.098;6.414;2023-12-20T08:46:45;14.55;;;5.90;;
3052;SDS011;1536;51.098;6.414;2023-12-20T08:49:12;10.40;;;4.60;;
3052;SDS011;1536;51.098;6.414;2023-12-20T08:51:39;16.95;;;4.88;;
3052;SDS011;1536;51.098;6.414;2023-12-20T08:54:06;20.38;;;4.78;;
3052;SDS011;1536;51.098;6.414;2023-12-20T08:56:33;17.55;;;4.60;;
3052;SDS011;1536;51.098;6.414;2023-12-20T08:59:04;15.25;;;4.65;;
3052;SDS011;1536;51.098;6.414;2023-12-20T09:01:31;13.35;;;4.75;;
3052;SDS011;1536;51.098;6.414;2023-12-20T09:03:58;13.07;;;4.60;;
3052;SDS011;1536;51.098;6.414;2023-12-20T09:06:25;14.95;;;4.47;;
3052;SDS011;1536;51.098;6.414;2023-12-20T09:08:51;19.30;;;5.00;;
3052;SDS011;1536;51.098;6.414;2023-12-20T09:11:18;15.13;;;4.80;;
3052;SDS011;1536;51.098;6.414;2023-12-20T09:13:45;11.85;;;4.25;;
3052;SDS011;1536;51.098;6.414;2023-12-20T09:16:13;12.18;;;4.55;;
3052;SDS011;1536;51.098;6.414;2023-12-20T09:18:41;18.35;;;5.10;;
3052;SDS011;1536;51.098;6.414;2023-12-20T09:21:07;16.67;;;4.72;;
3052;SDS011;1536;51.098;6.414;2023-12-20T09:23:34;13.07;;;3.97;;
3052;SDS011;1536;51.098;6.414;2023-12-20T09:26:01;13.95;;;4.70;;
3052;SDS011;1536;51.098;6.414;2023-12-20T09:28:29;14.75;;;4.63;;
3052;SDS011;1536;51.098;6.414;2023-12-20T09:30:57;9.95;;;4.97;;
3052;SDS011;1536;51.098;6.414;2023-12-20T09:33:26;9.65;;;3.70;;
3052;SDS011;1536;51.098;6.414;2023-12-20T09:35:53;13.00;;;3.85;;
3052;SDS011;1536;51.098;6.414;2023-12-20T09:38:20;14.10;;;4.28;;
3052;SDS011;1536;51.098;6.414;2023-12-20T09:40:47;8.75;;;3.67;;
3052;SDS011;1536;51.098;6.414;2023-12-20T09:43:14;19.65;;;4.68;;
3052;SDS011;1536;51.098;6.414;2023-12-20T09:45:45;16.13;;;4.10;;
3052;SDS011;1536;51.098;6.414;2023-12-20T09:48:13;12.90;;;4.47;;
3052;SDS011;1536;51.098;6.414;2023-12-20T09:50:47;12.88;;;4.95;;
3052;SDS011;1536;51.098;6.414;2023-12-20T09:53:14;8.88;;;4.72;;
3052;SDS011;1536;51.098;6.414;2023-12-20T09:55:42;16.73;;;4.93;;
3052;SDS011;1536;51.098;6.414;2023-12-20T09:58:08;22.42;;;4.22;;
3052;SDS011;1536;51.098;6.414;2023-12-20T10:00:35;6.80;;;3.63;;
3052;SDS011;1536;51.098;6.414;2023-12-20T10:03:02;13.23;;;3.78;;
3052;SDS011;1536;51.098;6.414;2023-12-20T10:05:32;11.45;;;4.80;;
3052;SDS011;1536;51.098;6.414;2023-12-20T10:08:01;17.30;;;3.88;;
3052;SDS011;1536;51.098;6.414;2023-12-20T10:10:28;6.75;;;3.90;;
3052;SDS011;1536;51.098;6.414;2023-12-20T10:13:01;13.05;;;4.13;;
3052;SDS011;1536;51.098;6.414;2023-12-20T10:15:29;15.05;;;4.47;;
3052;SDS011;1536;51.098;6.414;2023-12-20T10:17:57;15.88;;;4.00;;
3052;SDS011;1536;51.098;6.414;2023-12-20T10:20:25;9.10;;;3.80;;
3052;SDS011;1536;51.098;6.414;2023-12-20T10:22:53;14.27;;;3.63;;
3052;SDS011;1536;51.098;6.414;2023-12-20T10:25:22;15.35;;;4.22;;
3052;SDS011;1536;51.098;6.414;2023-12-20T10:27:49;10.85;;;3.97;;
3052;SDS011;1536;51.098;6.414;2023-12-20T10:30:17;12.30;;;6.20;;
3052;SDS011;1536;51.098;6.414;2023-12-20T10:32:43;11.27;;;4.22;;
3052;SDS011;1536;51.098;6.414;2023-12-20T10:35:10;24.70;;;5.32;;
3052;SDS011;1536;51.098;6.414;2023-12-20T10:37:37;49.70;;;8.25;;
3052;SDS011;1536;51.098;6.414;2023-12-20T10:40:04;15.02;;;3.65;;
3052;SDS011;1536;51.098;6.414;2023-12-20T10:42:33;10.30;;;3.40;;
3052;SDS011;1536;51.098;6.414;2023-12-20T10:45:02;8.48;;;3.47;;
3052;SDS011;1536;51.098;6.414;2023-12-20T10:47:30;11.23;;;3.45;;
3052;SDS011;1536;51.098;6.414;2023-12-20T10:49:58;9.70;;;3.95;;
3052;SDS011;1536;51.098;6.414;2023-12-20T10:52:26;10.25;;;3.42;;
3052;SDS011;1536;51.098;6.414;2023-12-20T10:54:55;9.75;;;4.13;;
3052;SDS011;1536;51.098;6.414;2023-12-20T10:57:22;17.40;;;4.15;;
3052;SDS011;1536;51.098;6.414;2023-12-20T10:59:54;7.18;;;3.75;;
3052;SDS011;1536;51.098;6.414;2023-12-20T11:02:22;8.27;;;3.75;;
3052;SDS011;1536;51.098;6.414;2023-12-20T11:04:52;8.75;;;3.30;;
3052;SDS011;1536;51.098;6.414;2023-12-20T11:07:29;10.57;;;4.30;;
3052;SDS011;1536;51.098;6.414;2023-12-20T11:10:03;13.35;;;4.43;;
3052;SDS011;1536;51.098;6.414;2023-12-20T11:12:39;15.80;;;4.95;;
3052;SDS011;1536;51.098;6.414;2023-12-20T11:15:14;13.60;;;4.40;;
3052;SDS011;1536;51.098;6.414;2023-12-20T11:17:44;10.80;;;4.05;;
3052;SDS011;1536;51.098;6.414;2023-12-20T11:20:11;9.35;;;3.80;;
3052;SDS011;1536;51.098;6.414;2023-12-20T11:22:38;10.38;;;3.30;;
3052;SDS011;1536;51.098;6.414;2023-12-20T11:25:17;8.05;;;3.45;;
3052;SDS011;1536;51.098;6.414;2023-12-20T11:27:44;8.43;;;3.55;;
3052;SDS011;1536;51.098;6.414;2023-12-20T11:30:41;9.05;;;3.78;;
3052;SDS011;1536;51.098;6.414;2023-12-20T11:33:09;15.32;;;3.80;;
3052;SDS011;1536;51.098;6.414;2023-12-20T11:35:35;13.82;;;2.95;;
3052;SDS011;1536;51.098;6.414;2023-12-20T11:38:04;14.27;;;3.88;;
3052;SDS011;1536;51.098;6.414;2023-12-20T11:40:33;20.02;;;6.30;;
3052;SDS011;1536;51.098;6.414;2023-12-20T11:43:01;21.50;;;4.18;;
3052;SDS011;1536;51.098;6.414;2023-12-20T11:45:28;11.30;;;4.30;;
3052;SDS011;1536;51.098;6.414;2023-12-20T11:47:57;10.52;;;3.70;;
3052;SDS011;1536;51.098;6.414;2023-12-20T11:50:24;14.23;;;3.80;;
3052;SDS011;1536;51.098;6.414;2023-12-20T11:52:52;10.40;;;3.85;;
3052;SDS011;1536;51.098;6.414;2023-12-20T11:55:20;14.80;;;4.25;;
3052;SDS011;1536;51.098;6.414;2023-12-20T11:57:47;9.45;;;4.10;;
3052;SDS011;1536;51.098;6.414;2023-12-20T12:00:14;15.55;;;4.15;;
3052;SDS011;1536;51.098;6.414;2023-12-20T12:02:42;8.25;;;4.72;;
3052;SDS011;1536;51.098;6.414;2023-12-20T12:05:11;7.82;;;4.55;;
3052;SDS011;1536;51.098;6.414;2023-12-20T12:07:37;18.08;;;5.85;;
3052;SDS011;1536;51.098;6.414;2023-12-20T12:10:05;8.30;;;4.45;;
3052;SDS011;1536;51.098;6.414;2023-12-20T12:12:33;10.90;;;4.50;;
3052;SDS011;1536;51.098;6.414;2023-12-20T12:15:00;15.57;;;5.35;;
3052;SDS011;1536;51.098;6.414;2023-12-20T12:17:28;5.13;;;3.38;;
3052;SDS011;1536;51.098;6.414;2023-12-20T12:20:01;8.98;;;4.28;;
3052;SDS011;1536;51.098;6.414;2023-12-20T12:22:31;15.07;;;5.47;;
3052;SDS011;1536;51.098;6.414;2023-12-20T12:25:08;10.43;;;5.15;;
3052;SDS011;1536;51.098;6.414;2023-12-20T12:27:36;13.00;;;5.40;;
3052;SDS011;1536;51.098;6.414;2023-12-20T12:30:04;14.40;;;4.68;;
3052;SDS011;1536;51.098;6.414;2023-12-20T12:32:33;9.32;;;4.78;;
3052;SDS011;1536;51.098;6.414;2023-12-20T12:35:00;12.05;;;4.85;;
3052;SDS011;1536;51.098;6.414;2023-12-20T12:37:28;7.13;;;5.03;;
3052;SDS011;1536;51.098;6.414;2023-12-20T12:39:57;16.67;;;5.63;;
3052;SDS011;1536;51.098;6.414;2023-12-20T12:42:24;16.00;;;6.10;;
3052;SDS011;1536;51.098;6.414;2023-12-20T12:44:53;12.63;;;5.72;;
3052;SDS011;1536;51.098;6.414;2023-12-20T12:47:20;11.10;;;5.22;;
3052;SDS011;1536;51.098;6.414;2023-12-20T12:49:48;14.00;;;6.18;;
3052;SDS011;1536;51.098;6.414;2023-12-20T12:52:17;8.63;;;4.65;;
3052;SDS011;1536;51.098;6.414;2023-12-20T12:54:45;15.55;;;5.40;;
3052;SDS011;1536;51.098;6.414;2023-12-20T12:57:13;7.97;;;5.10;;
3052;SDS011;1536;51.098;6.414;2023-12-20T12:59:41;12.48;;;6.22;;
3052;SDS011;1536;51.098;6.414;2023-12-20T13:02:09;10.75;;;5.40;;
3052;SDS011;1536;51.098;6.414;2023-12-20T13:04:35;12.48;;;5.43;;
3052;SDS011;1536;51.098;6.414;2023-12-20T13:07:02;12.38;;;5.55;;
3052;SDS011;1536;51.098;6.414;2023-12-20T13:09:29;13.05;;;6.35;;
3052;SDS011;1536;51.098;6.414;2023-12-20T13:11:59;9.70;;;5.03;;
3052;SDS011;1536;51.098;6.414;2023-12-20T13:14:28;10.75;;;4.82;;
3052;SDS011;1536;51.098;6.414;2023-12-20T13:16:55;15.55;;;4.60;;
3052;SDS011;1536;51.098;6.414;2023-12-20T13:19:22;10.60;;;5.20;;
3052;SDS011;1536;51.098;6.414;2023-12-20T13:21:49;9.70;;;3.92;;
3052;SDS011;1536;51.098;6.414;2023-12-20T13:24:16;15.50;;;4.07;;
3052;SDS011;1536;51.098;6.414;2023-12-20T13:26:44;12.35;;;4.57;;
3052;SDS011;1536;51.098;6.414;2023-12-20T13:29:12;14.68;;;4.47;;
3052;SDS011;1536;51.098;6.414;2023-12-20T13:31:39;13.50;;;5.03;;
3052;SDS011;1536;51.098;6.414;2023-12-20T13:34:06;11.88;;;5.18;;
3052;SDS011;1536;51.098;6.414;2023-12-20T13:36:32;13.13;;;3.95;;
3052;SDS011;1536;51.098;6.414;2023-12-20T13:39:01;9.45;;;3.90;;
3052;SDS011;1536;51.098;6.414;2023-12-20T13:41:30;11.65;;;3.90;;
3052;SDS011;1536;51.098;6.414;2023-12-20T13:43:57;8.95;;;5.13;;
3052;SDS011;1536;51.098;6.414;2023-12-20T13:46:27;8.80;;;4.28;;
3052;SDS011;1536;51.098;6.414;2023-12-20T13:48:54;16.58;;;5.00;;
3052;SDS011;1536;51.098;6.414;2023-12-20T13:51:20;10.75;;;4.55;;
3052;SDS011;1536;51.098;6.414;2023-12-20T13:53:47;15.85;;;6.13;;
3052;SDS011;1536;51.098;6.414;2023-12-20T13:56:14;10.52;;;4.20;;
3052;SDS011;1536;51.098;6.414;2023-12-20T13:58:41;8.20;;;4.35;;
3052;SDS011;1536;51.098;6.414;2023-12-20T14:01:11;11.40;;;4.38;;
3052;SDS011;1536;51.098;6.414;2023-12-20T14:03:42;11.40;;;4.40;;
3052;SDS011;1536;51.098;6.414;2023-12-20T14:06:08;9.65;;;4.22;;
3052;SDS011;1536;51.098;6.414;2023-12-20T14:08:36;10.48;;;4.25;;
3052;SDS011;1536;51.098;6.414;2023-12-20T14:11:03;12.10;;;5.05;;
3052;SDS011;1536;51.098;6.414;2023-12-20T14:13:30;12.35;;;4.97;;
3052;SDS011;1536;51.098;6.414;2023-12-20T14:15:56;11.00;;;5.13;;
3052;SDS011;1536;51.098;6.414;2023-12-20T14:18:25;6.93;;;4.53;;
3052;SDS011;1536;51.098;6.414;2023-12-20T14:20:53;8.82;;;5.32;;
3052;SDS011;1536;51.098;6.414;2023-12-20T14:23:20;8.82;;;4.55;;
3052;SDS011;1536;51.098;6.414;2023-12-20T14:25:47;10.13;;;4.97;;
3052;SDS011;1536;51.098;6.414;2023-12-20T14:28:15;13.55;;;5.55;;
3052;SDS011;1536;51.098;6.414;2023-12-20T14:30:41;12.05;;;5.43;;
3052;SDS011;1536;51.098;6.414;2023-12-20T14:33:08;15.55;;;4.90;;
3052;SDS011;1536;51.098;6.414;2023-12-20T14:35:35;10.57;;;4.82;;
3052;SDS011;1536;51.098;6.414;2023-12-20T14:38:03;9.90;;;4.78;;
3052;SDS011;1536;51.098;6.414;2023-12-20T14:40:31;12.57;;;5.00;;
3052;SDS011;1536;51.098;6.414;2023-12-20T14:42:57;15.45;;;5.88;;
3052;SDS011;1536;51.098;6.414;2023-12-20T14:45:25;9.60;;;5.13;;
3052;SDS011;1536;51.098;6.414;2023-12-20T14:47:52;10.05;;;4.60;;
3052;SDS011;1536;51.098;6.414;2023-12-20T14:50:19;8.90;;;4.63;;
3052;SDS011;1536;51.098;6.414;2023-12-20T14:52:46;16.45;;;5.20;;
3052;SDS011;1536;51.098;6.414;2023-12-20T14:55:15;12.77;;;4.30;;
3052;SDS011;1536;51.098;6.414;2023-12-20T14:57:42;24.88;;;5.85;;
3052;SDS011;1536;51.098;6.414;2023-12-20T15:00:09;21.73;;;5.30;;
3052;SDS011;1536;51.098;6.414;2023-12-20T15:02:40;13.35;;;4.80;;
3052;SDS011;1536;51.098;6.414;2023-12-20T15:05:06;16.15;;;5.68;;
3052;SDS011;1536;51.098;6.414;2023-12-20T15:07:33;13.68;;;4.90;;